Search for airport 
image banner adimage banner adimage banner ad
image banner ad

8CA7 - Platform Henry

Located in Carpinteria, United States

ICAO - 8CA7, IATA -

Data provided by Airmate  

General information

Coordinates: N34°19'59" W119°33'40"
Elevation is 111 feet MSL.
Magnetic variation is 14° East
View others Airports in California

Operational data

Special qualification required
Current time UTC:
Current local time:
Weather at : KSBA - Santa Barbara Muni ( 28 km )
METAR: KSBA 210853Z AUTO 22004KT 9SM OVC005 14/13 A2993 RMK AO2 SLP135 T01440133 51003
TAF: KSBA 210809Z 2108/2206 VRB03KT 6SM BR OVC005 FM211700 16005KT 6SM BR OVC010 FM211800 19006KT P6SM BKN012 FM212000 25010KT P6SM SCT012 FM220300 VRB03KT P6SM SKC
View NOTAMs / SUP AIP / TFR affecting this airport [VIEW]
Communications frequencies: [VIEW]

Runways:

Airport contact information

Address: Carpinteria United States

Satellite view of 8CA7